Terminal Aerodrome Forecast
Issued by NWS

Home | Current Version | Previous Version | Text Only | Print | Product List | Glossary On
Versions: 1 2 3 4 5 6 7 8 9 10 11 12 13 14
000
FTUS44 KCRP 242325
TAFALI
TAF
KALI 242325Z 2500/2524 13015G20KT P6SM SCT040 BKN250
     FM250200 15007KT P6SM SCT025
     FM251000 14005KT P6SM BKN020
     FM251500 14010G20KT P6SM VCSH SCT030 OVC050
      TEMPO 2516/2520 TSRA OVC030CB=

USA.gov is the U.S. government's official web portal to all federal, state and local government web resources and services.